Halifax, Pennsylvania
Current Conditions -  °F | °C
As of 9:56 AM on Friday 28 Nov 2014 (Local Time) from KCXY Reporting Station
Scattered Clouds Scattered Clouds  
Wind Chill: 25°   Ceiling: Unl
Heat Index: 34°   Visibility: 10mi
Dew Point: 16°   Wind: 14mph
Humidity: 48%   Direction: 290°WNW
Pressure: 30.27"   Gusts: 22mph
Location:  40.47°N, 76.93°W
Report Text: KCXY 281456Z 29012G19KT 10SM FEW050 SCT060 01/M09 A3027 RMK AO2 SLP256 T00111089 51013
Loading
Personal Weather Stations






























Interactive Weather Map New forecast layout! Learn more

10-Day Weather Forecast

Advertisements
Track Severe Weather on mobile